Altamont, North Carolina
Current Conditions -  °F | °C
As of 3:20 PM on Saturday 25 Oct 2014 (Local Time) from KTNB Reporting Station
Clear Clear  
Wind Chill: 63°   Ceiling: Unl
Heat Index: 63°   Visibility: 10mi
Dew Point: 34°   Wind: 17mph
Humidity: 35%   Direction: 300°WNW
Pressure: 30.03"   Gusts: 24mph
Location:  36.0227°N, 81.9499°W
Report Text: KTNB 251920Z AUTO 30015G21KT 10SM CLR 17/01 A3003 RMK AO2 T01700013
Loading
Personal Weather Stations






























Interactive Weather Map
Tropical Storm Tracking
New forecast layout! Learn more

10-Day Weather Forecast

Advertisements
Track Severe Weather on mobile